Terminal Aerodrome Forecast
Issued by NWS Oklahoma City, OK

Home | Current Version | Previous Version | Text Only | Print | Product List | Glossary On
Versions: 1 2 3 4 5 6 7 8 9 10 11 12 13 14 15 16 17 18 19 20 21 22 23 24 25 26
000
FTUS44 KOUN 251121
TAFOUN
TAF
KOUN 251121Z 2512/2612 16008KT P6SM BKN150
     FM251500 17012G20KT P6SM SCT060 OVC150 PROB30 2522/2604 5SM
      SHRA BKN050
     FM260400 11010KT 5SM -SHRA OVC040 PROB30 2604/2610 3SM -TSRA
      BKN025CB=

USA.gov is the U.S. government's official web portal to all federal, state and local government web resources and services.